Time;durP1;ratioP1;P1;durP2;ratioP2;P2;SDS_P1;SDS_P2;PMS_P1;PMS_P2;Temp;Humidity;BMP_temperature;BMP_pressure;BME280_temperature;BME280_humidity;BME280_pressure;Samples;Min_cycle;Max_cycle;Signal;HPM_P1;HPM_P2
2023/10/29 04:50:50;;;;;;;6.45;4.30;;;;;;;2.10;75.70;98062.22;6177112;23;20049;-94
2023/10/29 04:53:16;;;;;;;5.20;4.05;;;;;;;2.51;75.46;98104.84;6151711;23;20073;-91
2023/10/29 04:55:54;;;;;;;5.63;3.95;;;;;;;2.19;74.09;98063.19;6127487;23;20021;-91
2023/10/29 04:58:47;;;;;;;7.45;4.28;;;;;;;2.95;73.77;98187.38;6129504;23;20112;-94
2023/10/29 05:01:22;;;;;;;6.00;4.05;;;;;;;2.59;73.69;98142.75;6071940;23;20030;-94
2023/10/29 05:03:53;;;;;;;6.07;4.35;;;;;;;2.90;74.70;98193.63;6065394;23;20429;-94
2023/10/29 05:06:25;;;;;;;6.25;4.30;;;;;;;2.39;74.39;98121.44;6045787;23;20030;-93
2023/10/29 05:09:00;;;;;;;6.38;4.70;;;;;;;2.81;74.18;98163.81;6071314;23;20065;-94
2023/10/29 05:11:31;;;;;;;6.03;3.83;;;;;;;2.39;73.77;98104.47;6046150;23;20022;-94
2023/10/29 05:14:01;;;;;;;7.75;4.78;;;;;;;2.37;74.09;98115.53;6057935;23;20015;-93
2023/10/29 05:16:31;;;;;;;7.40;4.15;;;;;;;2.49;74.70;98169.06;6010889;23;20034;-94
2023/10/29 05:18:59;;;;;;;7.57;4.35;;;;;;;2.26;75.14;98120.25;5986820;23;20019;-93
2023/10/29 05:21:28;;;;;;;5.85;4.05;;;;;;;2.41;74.07;98142.72;6034559;23;20042;-94
2023/10/29 05:23:55;;;;;;;6.38;4.70;;;;;;;2.69;74.99;98195.00;6034868;23;20109;-95
2023/10/29 05:26:23;;;;;;;7.15;4.43;;;;;;;2.81;75.02;98201.59;5990288;23;20039;-93
2023/10/29 05:28:53;;;;;;;7.95;4.30;;;;;;;2.95;74.52;98222.47;6036215;23;20071;-92
2023/10/29 05:31:19;;;;;;;8.90;5.15;;;;;;;2.98;74.29;98248.84;6040517;23;20023;-92
2023/10/29 05:33:46;;;;;;;9.18;4.90;;;;;;;2.22;74.36;98142.66;6014963;23;20023;-91
2023/10/29 05:39:29;;;;;;;9.38;4.53;;;;;;;2.48;74.24;98200.59;5976952;24;20045;-90
2023/10/29 05:42:28;;;;;;;7.53;4.75;;;;;;;2.57;75.01;98233.16;5965624;24;20068;-92
2023/10/29 05:45:26;;;;;;;5.75;3.92;;;;;;;2.52;75.37;98266.41;5937522;23;20041;-94
2023/10/29 05:48:23;;;;;;;6.13;4.40;;;;;;;2.68;75.89;98271.63;5986964;23;20032;-91
2023/10/29 05:51:15;;;;;;;7.82;4.18;;;;;;;2.35;75.67;98204.81;5985429;23;20114;-93
2023/10/29 05:53:50;;;;;;;7.30;5.22;;;;;;;2.76;75.88;98268.31;6030565;23;20011;-92
2023/10/29 06:02:39;;;;;;;9.80;5.93;;;;;;;2.93;75.28;98271.31;6198302;23;20029;-94
2023/10/29 06:05:37;;;;;;;7.23;5.30;;;;;;;2.65;74.42;98220.91;6216244;23;20021;-95
2023/10/29 06:30:31;;;;;;;9.10;4.88;;;;;;;2.30;73.48;98215.66;6193252;23;20532;-95
2023/10/29 06:33:03;;;;;;;7.10;5.03;;;;;;;2.15;74.09;98207.69;6157744;23;20065;-94
2023/10/29 06:41:33;;;;;;;8.40;5.55;;;;;;;2.77;74.23;98292.28;6204656;23;20068;-94
2023/10/29 06:44:07;;;;;;;;;;;;;;;2.82;74.40;98338.13;6201581;23;20020;-93
2023/10/29 06:46:34;;;;;;;10.55;5.20;;;;;;;2.10;74.37;98226.63;6151842;23;19935;-94
2023/10/29 06:49:19;;;;;;;9.48;5.28;;;;;;;3.05;74.38;98344.63;6129544;23;20280;-93
2023/10/29 06:51:49;;;;;;;8.95;5.28;;;;;;;2.23;74.01;98200.91;6155048;23;20016;-92
2023/10/29 06:54:42;;;;;;;8.65;5.43;;;;;;;2.91;74.07;98305.09;6184869;23;20015;-92
2023/10/29 06:57:15;;;;;;;7.57;4.68;;;;;;;2.80;73.38;98323.31;6159078;23;20025;-92
2023/10/29 06:59:44;;;;;;;9.27;5.68;;;;;;;2.91;74.59;98324.78;6086331;23;20012;-92
2023/10/29 07:02:13;;;;;;;7.28;5.07;;;;;;;2.81;74.14;98297.91;6108405;23;20035;-90
2023/10/29 07:04:40;;;;;;;8.85;5.40;;;;;;;2.63;73.94;98279.78;6183224;23;20024;-93
2023/10/29 07:07:11;;;;;;;7.95;5.32;;;;;;;2.73;73.32;98269.66;6156700;23;20021;-93
2023/10/29 07:17:13;;;;;;;;;;;;;;;;;;;;;
2023/10/29 07:21:26;;;;;;;;;;;;;;;;;;;;;
2023/10/29 07:27:39;;;;;;;9.27;5.43;;;;;;;2.61;74.59;98292.75;6084723;23;20026;-96
2023/10/29 07:30:39;;;;;;;9.80;5.60;;;;;;;3.34;73.49;98405.84;6090983;23;20029;-93
2023/10/29 07:52:21;;;;;;;12.00;6.85;;;;;;;2.33;75.25;98349.91;6145730;23;20029;-95
2023/10/29 07:55:11;;;;;;;11.15;6.57;;;;;;;2.74;75.30;98424.28;6073983;23;20022;-91
2023/10/29 07:57:40;;;;;;;11.52;6.47;;;;;;;2.36;75.13;98372.81;6096012;23;20014;-92
2023/10/29 08:00:33;;;;;;;12.02;7.00;;;;;;;2.84;75.78;98456.56;6071215;23;20014;-96
2023/10/29 08:03:01;;;;;;;11.65;6.88;;;;;;;2.13;75.96;98368.94;6046400;23;20022;-93
2023/10/29 08:05:27;;;;;;;12.90;7.03;;;;;;;2.63;75.91;98433.56;6091269;23;20025;-94
2023/10/29 08:07:54;;;;;;;13.40;6.88;;;;;;;2.21;75.59;98389.91;6089471;23;20014;-94
2023/10/29 08:10:30;;;;;;;14.88;7.00;;;;;;;2.50;75.58;98440.41;6143090;23;20018;-94
2023/10/29 08:12:57;;;;;;;8.57;5.53;;;;;;;2.04;76.09;98401.06;6071068;23;20010;-93
2023/10/29 08:15:41;;;;;;;8.25;5.15;;;;;;;1.86;76.48;98378.28;6070758;23;20092;-93
2023/10/29 08:18:34;;;;;;;21.80;7.20;;;;;;;1.85;76.29;98351.59;6107096;23;20041;-93
2023/10/29 08:21:21;;;;;;;;;;;;;;;2.65;75.68;98498.81;6120461;23;20026;-92
2023/10/29 08:24:03;;;;;;;13.30;7.03;;;;;;;2.17;76.69;98423.91;6137967;23;19920;-91
2023/10/29 08:26:32;;;;;;;9.23;5.65;;;;;;;2.17;76.29;98436.59;6094593;23;20021;-92
2023/10/29 08:29:23;;;;;;;14.43;7.57;;;;;;;2.74;75.91;98514.13;6123099;23;20018;-94
2023/10/29 08:32:23;;;;;;;14.00;7.32;;;;;;;2.48;75.69;98478.44;6102997;23;20030;-91
2023/10/29 08:35:13;;;;;;;13.20;7.30;;;;;;;2.29;75.78;98437.84;6119053;23;20049;-91
2023/10/29 08:37:40;;;;;;;10.90;5.82;;;;;;;2.23;74.64;98451.66;6063194;23;20077;-93
2023/10/29 08:40:07;;;;;;;7.82;4.68;;;;;;;2.17;75.43;98456.25;6084658;23;20077;-93
2023/10/29 08:42:33;;;;;;;11.63;6.53;;;;;;;2.05;75.72;98445.84;6110868;23;20021;-89
2023/10/29 08:44:59;;;;;;;12.77;7.20;;;;;;;2.24;75.56;98482.91;6198274;23;20021;-88
2023/10/29 08:47:27;;;;;;;12.85;7.35;;;;;;;2.51;76.14;98537.22;6115278;23;20013;-89
2023/10/29 08:49:55;;;;;;;21.30;8.77;;;;;;;2.39;76.04;98525.97;6114242;23;20084;-89
2023/10/29 08:52:21;;;;;;;12.30;7.95;;;;;;;2.55;76.02;98548.25;6144604;23;20028;-87
2023/10/29 08:54:50;;;;;;;13.93;7.25;;;;;;;2.42;76.59;98549.72;6104211;23;20061;-90
2023/10/29 08:57:37;;;;;;;15.38;7.63;;;;;;;2.32;75.99;98509.31;5942844;24;20021;-90
2023/10/29 09:00:14;;;;;;;15.30;7.90;;;;;;;2.08;75.48;98482.19;5940234;24;20027;-87
2023/10/29 09:02:47;;;;;;;13.85;7.50;;;;;;;2.37;76.04;98535.44;5941821;24;20127;-89
2023/10/29 09:05:15;;;;;;;15.25;7.20;;;;;;;2.69;76.65;98543.06;5942788;24;20024;-87
2023/10/29 09:07:54;;;;;;;17.00;7.40;;;;;;;2.45;75.58;98499.75;5963303;24;20301;-88
2023/10/29 09:10:28;;;;;;;11.27;6.85;;;;;;;2.51;75.21;98504.84;5934130;24;20024;-86
2023/10/29 09:13:00;;;;;;;13.95;6.57;;;;;;;2.56;75.20;98528.31;5918023;24;20020;-87
2023/10/29 09:15:54;;;;;;;9.02;5.15;;;;;;;2.62;75.58;98570.38;5972125;24;20020;-87
2023/10/29 09:18:23;;;;;;;11.48;6.45;;;;;;;2.45;76.10;98551.00;5899054;24;20001;-88
2023/10/29 09:20:51;;;;;;;12.90;6.05;;;;;;;2.09;75.77;98508.06;5965943;24;20076;-90
2023/10/29 09:23:51;;;;;;;13.23;6.53;;;;;;;2.17;76.26;98507.50;5943696;24;20032;-88
2023/10/29 09:27:08;;;;;;;14.40;7.15;;;;;;;2.45;76.15;98578.81;5940511;24;20085;-89
2023/10/29 09:30:36;;;;;;;16.38;7.70;;;;;;;2.59;76.63;98589.81;5968898;24;20099;-88
2023/10/29 09:33:05;;;;;;;8.30;5.25;;;;;;;2.52;76.31;98590.09;6021310;23;20027;31
2023/10/29 09:35:32;;;;;;;12.15;7.45;;;;;;;2.19;75.58;98539.56;6065357;23;20053;-89
2023/10/29 09:38:01;;;;;;;12.32;7.28;;;;;;;2.63;75.77;98590.06;6057944;23;20101;-91
2023/10/29 09:40:51;;;;;;;13.70;7.82;;;;;;;2.75;75.09;98602.13;6093953;23;20026;-91
2023/10/29 09:44:04;;;;;;;17.85;8.70;;;;;;;2.83;75.04;98606.13;6068179;23;20033;-89
2023/10/29 09:46:36;;;;;;;11.95;7.35;;;;;;;2.38;74.59;98540.53;6064179;23;20003;-91
2023/10/29 09:49:03;;;;;;;13.43;7.55;;;;;;;2.31;75.16;98527.34;6036019;23;20095;-91
2023/10/29 09:51:43;;;;;;;14.13;8.23;;;;;;;2.64;74.61;98583.56;6084746;23;20025;-88
2023/10/29 09:54:10;;;;;;;12.85;7.45;;;;;;;2.78;75.16;98598.88;6084770;23;20105;-90
2023/10/29 09:56:39;;;;;;;17.70;8.80;;;;;;;2.66;74.85;98594.88;6107885;23;20022;-91
2023/10/29 09:59:36;;;;;;;20.52;8.10;;;;;;;2.89;75.32;98633.91;6115352;23;20026;-88
2023/10/29 10:02:10;;;;;;;10.57;6.77;;;;;;;2.21;74.50;98513.13;6070040;23;20009;-88
2023/10/29 10:04:58;;;;;;;15.77;7.97;;;;;;;2.77;74.47;98608.03;6093089;23;20006;-87
2023/10/29 10:07:26;;;;;;;12.57;6.95;;;;;;;2.40;73.80;98535.69;6044110;23;20357;-89
2023/10/29 10:09:55;;;;;;;;;;;;;;;2.94;74.19;98645.44;6063943;23;20026;-88
2023/10/29 10:12:25;;;;;;;12.90;7.10;;;;;;;2.73;74.28;98604.28;6064405;23;19922;-88
2023/10/29 10:15:17;;;;;;;11.73;6.70;;;;;;;3.08;73.87;98647.53;6036716;23;20020;-89
2023/10/29 10:18:05;;;;;;;14.55;7.65;;;;;;;3.19;73.50;98657.19;6081252;23;20018;-89
2023/10/29 10:20:35;;;;;;;24.00;6.93;;;;;;;2.77;72.69;98599.13;6032516;23;20495;-90
2023/10/29 10:23:11;;;;;;;11.68;7.03;;;;;;;3.11;73.79;98646.97;6036748;23;20023;-90
2023/10/29 10:25:40;;;;;;;10.65;6.65;;;;;;;2.58;72.30;98575.50;6059680;23;20077;-89
2023/10/29 10:28:09;;;;;;;12.25;7.07;;;;;;;2.71;72.24;98574.06;6104329;23;20022;-86
2023/10/29 10:30:40;;;;;;;13.68;7.28;;;;;;;2.67;71.90;98591.91;6105243;23;20025;-89
2023/10/29 10:33:18;;;;;;;12.82;7.63;;;;;;;2.75;72.81;98590.53;6035910;23;20033;-90
2023/10/29 10:35:47;;;;;;;13.18;7.60;;;;;;;2.89;72.32;98625.78;6031023;23;20023;-90
2023/10/29 10:38:15;;;;;;;12.18;7.20;;;;;;;3.16;72.43;98663.16;6063838;23;20022;-89
2023/10/29 10:40:44;;;;;;;14.15;7.32;;;;;;;3.32;71.93;98675.47;6079809;23;20025;-92
2023/10/29 10:43:10;;;;;;;;;;;;;;;3.24;71.48;98687.66;6057106;23;20074;-90
2023/10/29 10:45:38;;;;;;;12.85;7.10;;;;;;;2.64;71.89;98615.94;6083058;23;19917;-90
2023/10/29 10:48:05;;;;;;;9.52;6.15;;;;;;;2.64;71.91;98640.22;6054918;23;20401;-90
2023/10/29 10:50:33;;;;;;;13.73;7.40;;;;;;;2.82;72.75;98678.19;6037208;23;20018;-90
2023/10/29 10:53:05;;;;;;;11.45;6.40;;;;;;;2.42;72.41;98608.22;6067876;23;20534;-88
2023/10/29 10:55:35;;;;;;;13.00;7.10;;;;;;;2.78;72.57;98697.91;6086923;23;20101;-90
2023/10/29 10:58:03;;;;;;;12.85;6.70;;;;;;;2.89;72.60;98704.88;6037459;23;20022;-89
2023/10/29 11:00:34;;;;;;;12.95;7.18;;;;;;;2.81;72.57;98697.34;6084882;23;20025;-90
2023/10/29 11:03:10;;;;;;;9.43;6.18;;;;;;;2.61;72.88;98673.94;6121707;23;20007;-89
2023/10/29 11:06:17;;;;;;;12.45;7.22;;;;;;;2.94;72.48;98718.34;6052796;23;20003;-89
2023/10/29 11:08:44;;;;;;;13.88;7.32;;;;;;;2.82;72.67;98683.59;6099070;23;20327;-89
2023/10/29 11:11:11;;;;;;;10.88;7.07;;;;;;;2.98;72.67;98697.00;6099247;23;20006;-90
2023/10/29 11:13:41;;;;;;;10.70;7.00;;;;;;;3.23;72.49;98731.16;6124138;23;20029;-89
2023/10/29 11:16:25;;;;;;;17.10;7.90;;;;;;;2.88;72.70;98678.97;6050929;23;20035;-88
2023/10/29 11:18:57;;;;;;;11.50;6.90;;;;;;;2.85;72.54;98709.22;6100067;23;20013;-89
2023/10/29 11:21:34;;;;;;;14.63;7.20;;;;;;;3.23;73.33;98742.75;6099390;23;20053;-90
2023/10/29 11:24:22;;;;;;;12.95;7.50;;;;;;;3.23;72.01;98744.66;6071811;23;20015;-89
2023/10/29 11:27:30;;;;;;;11.15;6.40;;;;;;;3.27;72.24;98753.81;6090241;23;20049;-90
2023/10/29 11:30:23;;;;;;;14.57;7.30;;;;;;;3.39;71.46;98762.41;6089603;23;20026;-90
2023/10/29 11:33:10;;;;;;;12.20;6.53;;;;;;;3.39;71.02;98767.00;6106671;23;20030;-88
2023/10/29 11:35:37;;;;;;;11.80;6.00;;;;;;;3.08;71.84;98731.22;6031004;23;20045;-90
2023/10/29 11:38:22;;;;;;;;;;;;;;;3.38;72.01;98784.28;6056311;23;20022;-88
2023/10/29 11:40:49;;;;;;;14.38;7.30;;;;;;;3.25;72.01;98761.41;6102475;23;20204;-90
2023/10/29 11:43:22;;;;;;;12.00;6.43;;;;;;;3.15;71.29;98726.34;6036102;23;20023;-91
2023/10/29 11:46:00;;;;;;;9.55;5.28;;;;;;;3.12;71.09;98748.50;6087814;23;20022;-89
2023/10/29 11:48:33;;;;;;;13.95;7.80;;;;;;;3.36;71.73;98789.97;6089417;23;20029;-91
2023/10/29 11:51:29;;;;;;;12.32;7.03;;;;;;;2.99;72.43;98731.81;6090282;23;20030;-92
2023/10/29 11:54:16;;;;;;;6.38;3.90;;;;;;;3.30;71.46;98807.28;5972617;23;20292;-90
2023/10/29 11:56:45;;;;;;;12.85;6.97;;;;;;;3.17;71.37;98788.97;5978847;23;20502;-91
2023/10/29 11:59:11;;;;;;;10.88;5.68;;;;;;;3.05;71.46;98792.81;5998999;23;20023;-93
2023/10/29 12:01:38;;;;;;;11.02;6.32;;;;;;;2.82;72.12;98759.16;6020606;23;20155;-89
2023/10/29 12:04:07;;;;;;;9.23;5.30;;;;;;;3.02;71.54;98800.66;5987674;24;20027;-89
2023/10/29 12:07:05;;;;;;;6.50;3.97;;;;;;;3.16;71.28;98822.47;5987334;24;20023;-88
2023/10/29 12:09:34;;;;;;;13.52;5.72;;;;;;;2.90;71.69;98803.66;5905930;24;20025;-90
2023/10/29 12:12:09;;;;;;;10.55;5.00;;;;;;;2.77;71.71;98782.66;5882498;24;20025;-90
2023/10/29 12:14:46;;;;;;;7.75;4.80;;;;;;;2.80;71.87;98793.69;5906171;24;20038;-90
2023/10/29 12:17:21;;;;;;;7.47;5.18;;;;;;;2.96;71.95;98813.38;5870676;24;20025;-92
2023/10/29 12:19:49;;;;;;;10.35;5.93;;;;;;;2.42;71.76;98732.28;5888499;24;20022;-89
2023/10/29 12:22:24;;;;;;;9.13;5.88;;;;;;;3.24;72.53;98852.41;5887369;24;20029;-89
2023/10/29 12:24:54;;;;;;;8.10;5.60;;;;;;;2.79;72.15;98780.50;5884606;24;20127;-90
2023/10/29 12:27:23;;;;;;;14.80;5.35;;;;;;;2.94;72.55;98826.31;5861734;24;20029;-90
2023/10/29 12:29:53;;;;;;;12.30;5.35;;;;;;;2.98;72.56;98803.13;5890673;24;20013;-91
2023/10/29 12:32:25;;;;;;;9.30;5.57;;;;;;;2.93;72.54;98796.91;5959228;24;20020;-92
2023/10/29 12:34:59;;;;;;;9.73;5.72;;;;;;;3.32;72.67;98859.16;5940175;24;20039;-89
2023/10/29 12:37:35;;;;;;;10.43;6.13;;;;;;;3.34;72.73;98870.47;5942288;24;20048;-87
2023/10/29 12:40:05;;;;;;;10.45;5.65;;;;;;;3.03;72.99;98824.69;5913021;24;20454;-89
2023/10/29 12:45:28;;;;;;;9.00;5.25;;;;;;;2.82;72.79;98818.53;6016417;23;20019;-91
2023/10/29 12:48:12;;;;;;;10.60;5.82;;;;;;;2.99;73.15;98837.13;6065402;23;20038;-89
2023/10/29 12:50:51;;;;;;;8.38;5.40;;;;;;;3.26;72.53;98893.47;6080891;23;20014;-89
2023/10/29 12:53:27;;;;;;;7.22;4.70;;;;;;;2.89;72.51;98842.56;6081134;23;20014;-88
2023/10/29 12:55:57;;;;;;;11.50;5.85;;;;;;;2.98;73.38;98857.09;6060705;23;20026;-89
2023/10/29 12:58:26;;;;;;;12.60;5.55;;;;;;;2.89;73.00;98858.75;6114137;23;20030;-89
2023/10/29 13:01:05;;;;;;;11.40;5.78;;;;;;;3.04;73.60;98872.19;6059725;23;20093;-89
2023/10/29 13:03:31;;;;;;;10.10;5.88;;;;;;;3.26;72.78;98893.47;6110053;23;20030;-86
2023/10/29 13:05:58;;;;;;;9.27;5.35;;;;;;;2.80;72.53;98828.78;6078723;23;20019;-88
2023/10/29 13:08:25;;;;;;;10.45;6.22;;;;;;;3.22;72.74;98897.81;6079064;23;20082;-85
2023/10/29 13:10:53;;;;;;;;;;;;;;;3.26;72.65;98900.78;6081665;23;20015;-85
2023/10/29 13:13:22;;;;;;;;;;;;;;;3.19;72.49;98906.47;6085415;23;19960;-91
2023/10/29 13:15:49;;;;;;;10.90;4.97;;;;;;;2.99;73.15;98887.63;6088280;23;19917;-91
2023/10/29 13:18:16;;;;;;;8.18;5.30;;;;;;;3.05;72.84;98908.13;6042177;23;19998;-90
2023/10/29 13:20:42;;;;;;;;;;;;;;;2.92;73.21;98914.09;6063065;23;20025;-88
2023/10/29 13:23:08;;;;;;;8.57;5.18;;;;;;;2.43;74.40;98848.03;6102156;23;19921;-88
2023/10/29 13:25:34;;;;;;;9.82;5.20;;;;;;;2.66;73.82;98906.00;6057833;23;20022;-89
2023/10/29 13:28:04;;;;;;;7.80;4.70;;;;;;;2.66;73.75;98889.00;6053674;23;20022;-87
2023/10/29 13:30:57;;;;;;;8.98;6.05;;;;;;;2.78;73.78;98889.53;6051607;23;20027;-90
2023/10/29 13:33:24;;;;;;;9.63;5.88;;;;;;;2.98;73.21;98932.72;6099132;23;20479;-86
2023/10/29 13:35:51;;;;;;;10.63;4.72;;;;;;;2.74;73.17;98927.03;6105396;23;20046;-88
2023/10/29 13:38:17;;;;;;;11.02;6.15;;;;;;;2.58;73.24;98877.69;6106051;23;20018;-88
2023/10/29 13:40:44;;;;;;;11.07;6.07;;;;;;;2.67;73.60;98879.84;6077365;23;20022;-84
2023/10/29 13:43:10;;;;;;;8.57;4.88;;;;;;;2.73;73.12;98921.94;6102841;23;20440;-85
2023/10/29 13:45:37;;;;;;;11.32;5.95;;;;;;;2.88;73.58;98954.31;6080136;23;20018;-88
2023/10/29 13:48:04;;;;;;;8.95;5.65;;;;;;;2.47;73.52;98880.66;6029643;23;20041;-88
2023/10/29 13:50:30;;;;;;;9.27;5.72;;;;;;;3.03;73.62;98970.50;6031745;23;20512;-86
2023/10/29 13:52:59;;;;;;;10.10;6.55;;;;;;;2.93;73.50;98934.59;6082679;23;20018;-87
2023/10/29 13:55:25;;;;;;;11.77;6.50;;;;;;;3.34;72.57;98973.13;6075982;23;20116;-86
2023/10/29 13:57:55;;;;;;;10.95;6.40;;;;;;;2.95;72.61;98924.34;6051780;23;20042;-90
2023/10/29 14:00:25;;;;;;;9.45;5.57;;;;;;;2.87;72.61;98930.28;6102412;23;20071;-87
2023/10/29 14:02:52;;;;;;;9.32;5.38;;;;;;;2.74;72.83;98942.44;6075339;23;20427;-86
2023/10/29 14:05:30;;;;;;;8.80;5.18;;;;;;;3.12;72.69;98980.75;6076441;23;20050;-85
2023/10/29 14:07:59;;;;;;;10.60;5.40;;;;;;;3.01;73.04;98988.88;6077492;23;20046;-89
2023/10/29 14:10:25;;;;;;;11.23;5.68;;;;;;;2.77;72.32;98925.69;6077370;23;20018;-88
2023/10/29 14:12:53;;;;;;;9.48;5.30;;;;;;;3.25;72.03;98994.50;6079282;23;20018;-89
2023/10/29 14:15:21;;;;;;;8.57;5.07;;;;;;;3.23;72.39;98983.16;6078288;23;20105;-89
2023/10/29 14:17:47;;;;;;;10.07;5.75;;;;;;;3.25;72.33;98974.78;6079215;23;20090;-87
2023/10/29 14:20:13;;;;;;;8.73;5.53;;;;;;;3.05;72.04;98943.22;6075854;23;20022;-90
2023/10/29 14:22:39;;;;;;;9.32;5.70;;;;;;;2.83;71.98;98938.13;6103243;23;20038;-92
2023/10/29 14:25:07;;;;;;;9.35;5.22;;;;;;;2.88;72.76;98957.03;6076414;23;20026;-90
2023/10/29 14:27:35;;;;;;;11.38;6.05;;;;;;;3.14;72.81;98986.69;6055468;23;20074;-90
2023/10/29 14:30:01;;;;;;;9.10;6.22;;;;;;;3.36;73.36;99000.69;6080511;23;20035;-89
2023/10/29 14:32:29;;;;;;;11.55;5.65;;;;;;;3.33;72.31;98968.00;6075196;23;20102;-90
2023/10/29 14:34:57;;;;;;;8.75;5.47;;;;;;;3.41;71.76;98987.19;6075011;23;20018;-88
2023/10/29 14:37:23;;;;;;;7.57;5.43;;;;;;;3.28;72.34;98991.25;6077445;23;20535;-89
2023/10/29 14:39:51;;;;;;;9.15;5.70;;;;;;;3.26;72.69;98992.59;6077962;23;20074;-88
2023/10/29 14:42:18;;;;;;;13.02;7.15;;;;;;;3.20;72.35;98986.41;6052864;23;20109;-89
2023/10/29 14:44:44;;;;;;;13.23;6.88;;;;;;;3.15;72.20;98977.50;6110897;23;20029;-87
2023/10/29 14:47:30;;;;;;;10.55;5.55;;;;;;;2.88;72.52;98964.28;6105907;23;20038;-89
2023/10/29 14:50:01;;;;;;;10.27;5.55;;;;;;;3.05;72.91;99002.63;6077168;23;20022;-90
2023/10/29 14:52:28;;;;;;;10.05;5.70;;;;;;;2.98;72.78;98988.56;6053252;23;20051;-89
2023/10/29 14:54:56;;;;;;;8.23;4.80;;;;;;;2.91;73.01;99005.03;6104701;23;20050;-92
2023/10/29 14:57:24;;;;;;;7.47;5.03;;;;;;;3.05;72.84;99003.44;6079720;23;20413;-89
2023/10/29 14:59:53;;;;;;;9.82;4.65;;;;;;;2.79;72.50;98980.22;6066253;23;20019;-88
2023/10/29 15:02:21;;;;;;;12.10;5.55;;;;;;;2.73;72.26;98957.00;6023346;23;20048;-88
2023/10/29 15:04:48;;;;;;;13.10;5.90;;;;;;;3.07;72.28;98997.75;6050543;23;20022;-87
2023/10/29 15:07:14;;;;;;;8.57;5.13;;;;;;;3.18;72.90;99029.09;6015010;23;20020;-88
2023/10/29 15:09:41;;;;;;;9.55;5.82;;;;;;;2.91;72.09;98991.53;6063755;23;20023;-89
2023/10/29 15:12:17;;;;;;;11.05;5.60;;;;;;;3.31;72.31;99033.09;6040254;23;20026;-88
2023/10/29 15:14:47;;;;;;;12.68;5.50;;;;;;;2.90;71.28;98971.03;6014257;23;20036;-87
2023/10/29 15:17:19;;;;;;;7.05;4.15;;;;;;;2.71;71.34;98957.28;6039145;23;20586;-87
2023/10/29 15:19:53;;;;;;;9.13;5.03;;;;;;;3.28;71.73;99053.38;6037785;23;20026;-90
2023/10/29 15:22:22;;;;;;;11.68;6.65;;;;;;;3.30;72.06;99064.72;6065281;23;20031;-89
2023/10/29 15:24:48;;;;;;;16.67;8.38;;;;;;;3.18;72.63;99041.75;6061999;23;20018;-87
2023/10/29 15:27:16;;;;;;;10.80;6.60;;;;;;;3.16;72.16;99038.53;6036218;23;20022;-89
2023/10/29 15:29:43;;;;;;;8.55;5.10;;;;;;;2.98;71.55;99011.00;6044419;23;20260;-88
2023/10/29 15:32:10;;;;;;;8.13;5.20;;;;;;;3.31;71.73;99079.03;6063728;23;20106;-86
2023/10/29 15:34:39;;;;;;;14.23;5.57;;;;;;;3.47;71.71;99086.03;6026305;23;20026;-87
2023/10/29 15:37:05;;;;;;;9.10;5.28;;;;;;;3.21;70.70;99057.44;6002942;23;20039;-85
2023/10/29 15:39:32;;;;;;;8.07;4.78;;;;;;;3.18;70.82;99072.31;6049348;23;20041;-86
2023/10/29 15:41:58;;;;;;;7.57;4.68;;;;;;;3.22;71.51;99069.88;6096270;23;20363;-87
2023/10/29 15:44:26;;;;;;;10.18;4.68;;;;;;;3.35;71.33;99084.72;6097634;23;20057;-86
2023/10/29 15:46:55;;;;;;;13.85;4.60;;;;;;;3.03;70.85;99046.09;6052461;23;20474;-87
2023/10/29 15:49:27;;;;;;;9.23;5.30;;;;;;;3.23;70.98;99066.88;6077982;23;20018;-88
2023/10/29 15:51:56;;;;;;;12.55;6.13;;;;;;;3.02;70.63;99039.09;6080355;23;20088;-89
2023/10/29 15:54:27;;;;;;;9.35;4.68;;;;;;;3.10;71.06;99067.44;6074387;23;20028;-87
2023/10/29 15:56:56;;;;;;;7.25;4.43;;;;;;;3.32;70.69;99121.19;6070348;23;20022;-90
2023/10/29 15:59:23;;;;;;;7.45;4.13;;;;;;;3.02;71.98;99100.38;6068535;23;20022;-88
2023/10/29 16:01:52;;;;;;;8.68;5.07;;;;;;;2.75;70.62;99068.22;6035150;23;20129;-86
2023/10/29 16:04:20;;;;;;;8.52;4.22;;;;;;;2.59;70.93;99053.88;6051454;23;20022;-87
2023/10/29 16:06:46;;;;;;;;;;;;;;;3.05;70.73;99132.25;6032844;23;20074;-87
2023/10/29 16:09:13;;;;;;;5.37;3.27;;;;;;;2.75;70.71;99084.41;6055652;23;19948;-87
2023/10/29 16:11:40;;;;;;;4.50;3.40;;;;;;;2.86;70.79;99113.03;6037822;23;20018;-86
2023/10/29 16:14:07;;;;;;;4.13;2.78;;;;;;;2.83;70.63;99113.56;6091797;23;20018;-87
2023/10/29 16:16:35;;;;;;;5.43;3.22;;;;;;;2.55;71.02;99088.69;6040795;23;20031;-87
2023/10/29 16:19:03;;;;;;;7.77;4.37;;;;;;;2.78;70.35;99116.25;6069239;23;20041;-85
2023/10/29 16:21:29;;;;;;;9.25;5.10;;;;;;;2.81;70.89;99113.03;6039274;23;20045;-87
2023/10/29 16:23:56;;;;;;;8.60;4.65;;;;;;;2.96;71.25;99133.84;6021178;23;20101;-87
2023/10/29 16:26:22;;;;;;;8.50;4.57;;;;;;;3.03;70.96;99137.91;6075113;23;20029;-86
2023/10/29 16:28:50;;;;;;;8.13;4.20;;;;;;;2.74;70.12;99094.38;6094964;23;20024;-88
2023/10/29 16:31:19;;;;;;;8.43;4.53;;;;;;;3.04;70.63;99147.63;6054702;23;20113;-87
2023/10/29 16:33:47;;;;;;;9.05;5.00;;;;;;;3.03;70.97;99137.09;6100655;23;20023;-87
2023/10/29 16:36:13;;;;;;;10.13;5.10;;;;;;;3.14;71.57;99149.53;6072079;23;20360;-87
2023/10/29 16:38:43;;;;;;;7.70;4.53;;;;;;;3.09;70.98;99146.03;6079546;23;20488;-88
2023/10/29 16:41:17;;;;;;;8.30;4.90;;;;;;;2.72;70.74;99083.06;6075037;23;20285;-87
2023/10/29 16:43:53;;;;;;;7.93;4.40;;;;;;;3.18;70.49;99149.78;6072396;23;20085;-88
2023/10/29 16:46:20;;;;;;;9.70;4.57;;;;;;;2.80;71.09;99093.31;6074770;23;20018;-88
2023/10/29 16:48:47;;;;;;;9.07;4.70;;;;;;;2.97;70.64;99122.78;6099859;23;20029;-87
2023/10/29 16:51:20;;;;;;;7.65;4.55;;;;;;;3.15;70.99;99134.97;6048755;23;20026;-88
2023/10/29 16:53:47;;;;;;;7.15;3.80;;;;;;;2.65;71.07;99062.78;6080135;23;20082;-87
2023/10/29 16:56:13;;;;;;;;;;;;;;;3.25;70.38;99172.78;6028840;23;20441;-89
2023/10/29 16:58:42;;;;;;;4.77;3.60;;;;;;;2.68;69.58;99084.69;6030926;23;19917;-89
2023/10/29 17:01:23;;;;;;;6.40;3.50;;;;;;;3.13;69.45;99158.72;6104736;23;20022;-90
2023/10/29 17:04:03;;;;;;;6.95;4.20;;;;;;;3.10;69.42;99161.13;6080047;23;20025;-90
2023/10/29 17:06:36;;;;;;;7.53;4.05;;;;;;;2.74;69.94;99112.47;6087030;23;20086;-90
2023/10/29 17:09:02;;;;;;;9.38;4.07;;;;;;;3.09;69.92;99168.44;6084649;23;20022;-89
2023/10/29 17:11:28;;;;;;;8.73;4.22;;;;;;;3.18;69.59;99182.22;6085725;23;20018;-85
2023/10/29 17:13:57;;;;;;;6.65;3.30;;;;;;;2.72;69.85;99110.03;6087134;23;20027;-89
2023/10/29 17:16:29;;;;;;;8.02;3.65;;;;;;;3.19;69.04;99197.34;6037889;23;20078;-90
2023/10/29 17:18:56;;;;;;;7.47;4.25;;;;;;;2.92;69.73;99147.06;6086282;23;20066;-90
2023/10/29 17:21:26;;;;;;;9.15;4.57;;;;;;;3.08;69.53;99179.50;6088740;23;20010;-89
2023/10/29 17:23:56;;;;;;;6.00;3.70;;;;;;;3.19;69.41;99216.25;6086930;23;20066;-90
2023/10/29 17:26:27;;;;;;;6.22;3.55;;;;;;;2.90;70.02;99146.53;6062629;23;20050;-89
2023/10/29 17:28:56;;;;;;;9.82;4.50;;;;;;;2.70;69.87;99123.00;6077035;23;20013;-88
2023/10/29 17:31:24;;;;;;;8.30;4.15;;;;;;;3.35;68.77;99215.22;6124912;23;20021;-89
2023/10/29 17:34:06;;;;;;;7.97;4.90;;;;;;;3.36;69.41;99224.94;6059213;23;20022;-91
2023/10/29 17:36:37;;;;;;;6.90;4.25;;;;;;;3.08;70.09;99204.63;6033205;23;20030;-89
2023/10/29 17:39:04;;;;;;;6.53;4.07;;;;;;;2.84;70.42;99171.88;6080085;23;20022;-87
2023/10/29 17:41:32;;;;;;;6.45;3.00;;;;;;;2.95;69.98;99211.34;6059751;23;20045;-89
2023/10/29 17:44:02;;;;;;;6.22;3.80;;;;;;;2.95;69.81;99205.94;6082987;23;20025;-89
2023/10/29 17:46:30;;;;;;;5.88;3.35;;;;;;;2.92;69.86;99205.66;6107462;23;20022;-90
2023/10/29 17:48:58;;;;;;;4.45;3.10;;;;;;;2.36;69.31;99133.41;6109323;23;20014;-90
2023/10/29 17:51:24;;;;;;;6.82;3.83;;;;;;;2.68;69.41;99183.69;6107005;23;20022;-89
2023/10/29 17:53:53;;;;;;;11.45;4.40;;;;;;;2.82;69.22;99185.66;6086386;23;20026;-90
2023/10/29 17:56:21;;;;;;;7.35;4.05;;;;;;;2.69;68.44;99169.94;6086400;23;20019;-87
2023/10/29 17:58:48;;;;;;;9.57;5.07;;;;;;;3.09;68.65;99243.25;6083617;23;20033;-89
2023/10/29 18:01:15;;;;;;;8.80;3.97;;;;;;;2.93;68.28;99226.19;6087455;23;20010;-90
2023/10/29 18:03:53;;;;;;;5.90;3.47;;;;;;;2.59;67.67;99176.13;6064942;23;20057;-88
2023/10/29 18:06:26;;;;;;;5.93;3.47;;;;;;;3.09;68.15;99249.47;6148767;23;20025;-89
2023/10/29 18:08:55;;;;;;;3.65;2.28;;;;;;;2.39;67.82;99173.34;6170264;23;20460;-89
2023/10/29 18:11:29;;;;;;;7.55;3.53;;;;;;;2.63;68.52;99216.06;6171029;23;20032;-88
2023/10/29 18:14:00;;;;;;;6.95;4.15;;;;;;;2.97;68.73;99249.66;6150762;23;20013;-91